Time;durP1;ratioP1;P1;durP2;ratioP2;P2;SDS_P1;SDS_P2;PMS_P1;PMS_P2;Temp;Humidity;BMP_temperature;BMP_pressure;BME280_temperature;BME280_humidity;BME280_pressure;Samples;Min_cycle;Max_cycle;Signal;HPM_P1;HPM_P2
2023/07/11 00:02:09;;;;;;;2.40;0.77;;;;;;;23.95;48.15;101130.59;5215629;28;20050;-80
2023/07/11 00:05:04;;;;;;;0.90;0.90;;;;;;;23.94;48.01;101135.13;5205282;28;20149;-80
2023/07/11 00:07:55;;;;;;;0.45;0.40;;;;;;;23.90;48.10;101130.94;5208536;28;20513;-80
2023/07/11 00:10:46;;;;;;;0.20;0.20;;;;;;;23.88;48.24;101133.75;5223698;28;20035;-80
2023/07/11 00:13:39;;;;;;;0.40;0.40;;;;;;;23.84;48.15;101132.25;5209059;28;20034;-80
2023/07/11 00:16:30;;;;;;;0.40;0.40;;;;;;;23.82;48.14;101130.66;5221221;28;20043;-80
2023/07/11 00:19:20;;;;;;;0.30;0.30;;;;;;;23.77;48.30;101127.50;5206137;28;20048;-80
2023/07/11 00:22:11;;;;;;;0.20;0.20;;;;;;;23.73;48.48;101125.03;5208099;28;20489;-80
2023/07/11 00:25:04;;;;;;;1.30;1.20;;;;;;;23.70;48.15;101119.94;5145175;28;20054;-80
2023/07/11 00:27:55;;;;;;;0.20;0.20;;;;;;;23.66;48.38;101125.66;5218851;28;20130;-80
2023/07/11 00:30:47;;;;;;;0.73;0.65;;;;;;;23.67;48.87;101116.66;5220005;28;20455;-79
2023/07/11 00:33:38;;;;;;;1.27;1.17;;;;;;;23.63;48.62;101109.81;5224357;28;20085;-80
2023/07/11 00:36:29;;;;;;;1.17;1.00;;;;;;;23.58;48.41;101113.69;5217124;28;20132;-80
2023/07/11 00:39:20;;;;;;;0.20;0.20;;;;;;;23.57;48.88;101120.03;5200552;28;20031;-80
2023/07/11 00:42:11;;;;;;;0.40;0.40;;;;;;;23.54;48.85;101112.22;5218257;28;20069;-80
2023/07/11 00:45:03;;;;;;;0.22;0.22;;;;;;;23.54;49.25;101112.22;5205209;28;20548;-80
2023/07/11 00:47:54;;;;;;;0.73;0.73;;;;;;;23.45;48.78;101112.06;5209176;28;20046;-80
2023/07/11 00:50:45;;;;;;;0.57;0.57;;;;;;;23.39;49.22;101102.66;5215396;28;20110;-80
2023/07/11 00:53:39;;;;;;;0.20;0.20;;;;;;;23.38;49.17;101103.63;5205182;28;20031;-80
2023/07/11 00:56:37;;;;;;;0.57;0.57;;;;;;;23.35;48.73;101101.19;5206973;28;20584;-80
2023/07/11 00:59:29;;;;;;;0.30;0.30;;;;;;;23.34;49.21;101104.84;5149461;28;20038;-80
2023/07/11 01:02:24;;;;;;;5.90;1.55;;;;;;;23.31;48.92;101094.34;5212338;28;20027;-80
2023/07/11 01:05:15;;;;;;;6.80;0.65;;;;;;;23.23;49.25;101093.13;5210664;28;20047;-80
2023/07/11 01:08:07;;;;;;;1.08;0.40;;;;;;;23.25;49.18;101095.66;5207699;28;20027;-80
2023/07/11 01:10:57;;;;;;;0.60;0.60;;;;;;;23.21;49.69;101088.84;5205858;28;20035;-80
2023/07/11 01:13:49;;;;;;;0.20;0.20;;;;;;;23.18;49.15;101081.88;5203146;28;20291;-80
2023/07/11 01:16:44;;;;;;;1.65;0.85;;;;;;;23.14;49.24;101093.78;5212997;28;20102;-79
2023/07/11 01:19:35;;;;;;;0.32;0.32;;;;;;;23.08;49.90;101089.72;5205776;28;20354;-79
2023/07/11 01:22:28;;;;;;;6.13;0.30;;;;;;;23.10;49.37;101092.28;5216697;28;20381;-79
2023/07/11 01:25:19;;;;;;;0.50;0.50;;;;;;;23.06;49.75;101091.66;5203717;28;20170;-80
2023/07/11 01:28:12;;;;;;;0.52;0.52;;;;;;;23.03;49.42;101086.53;5207602;28;20438;-79
2023/07/11 01:31:03;;;;;;;0.50;0.50;;;;;;;22.98;49.64;101087.84;5221197;28;20084;-79
2023/07/11 01:33:54;;;;;;;0.68;0.63;;;;;;;22.98;49.33;101072.63;5205139;28;20488;-79
2023/07/11 01:36:45;;;;;;;1.38;0.47;;;;;;;22.91;49.80;101074.06;5218557;28;20142;-79
2023/07/11 01:39:36;;;;;;;0.30;0.30;;;;;;;22.88;49.52;101064.44;5209163;28;20036;-80
2023/07/11 01:42:27;;;;;;;1.30;0.70;;;;;;;22.85;50.01;101078.03;5226300;28;20106;-79
2023/07/11 01:45:18;;;;;;;31.58;2.15;;;;;;;22.83;49.49;101063.06;5208507;28;20062;-79
2023/07/11 01:48:09;;;;;;;0.35;0.35;;;;;;;22.77;49.65;101069.72;5150720;28;20038;-80
2023/07/11 01:51:00;;;;;;;0.50;0.50;;;;;;;22.77;49.47;101059.03;5228572;28;20046;-80
2023/07/11 01:53:51;;;;;;;0.77;0.65;;;;;;;22.76;49.62;101062.69;5217803;28;20027;-80
2023/07/11 01:56:42;;;;;;;2.35;1.30;;;;;;;22.74;49.52;101059.25;5211534;28;20806;-80
2023/07/11 01:59:34;;;;;;;0.65;0.50;;;;;;;22.73;49.84;101055.72;5225458;28;20407;-80
2023/07/11 02:02:25;;;;;;;2.65;1.00;;;;;;;22.71;49.65;101059.47;5221001;28;20388;-80
2023/07/11 02:05:16;;;;;;;0.28;0.28;;;;;;;22.68;50.09;101052.53;5206243;28;20030;-80
2023/07/11 02:08:06;;;;;;;0.50;0.50;;;;;;;22.63;49.71;101052.88;5224930;28;20057;-80
2023/07/11 02:10:57;;;;;;;0.20;0.20;;;;;;;22.59;49.71;101056.75;5213232;28;20038;-80
2023/07/11 02:16:20;;;;;;;1.20;0.38;;;;;;;22.51;49.92;101053.78;5260116;28;20059;-81
2023/07/11 02:19:12;;;;;;;5.00;0.95;;;;;;;22.50;49.87;101049.41;5250919;28;20032;-81
2023/07/11 02:22:03;;;;;;;1.00;0.63;;;;;;;22.48;49.99;101051.31;5229038;28;20031;-82
2023/07/11 02:24:54;;;;;;;3.53;1.10;;;;;;;22.47;50.27;101052.28;5260096;28;20963;-81
2023/07/11 02:27:45;;;;;;;0.20;0.20;;;;;;;22.44;50.18;101041.78;5262670;28;20036;-81
2023/07/11 02:30:36;;;;;;;1.08;0.70;;;;;;;22.43;50.19;101037.44;5245780;28;20032;-81
2023/07/11 02:33:27;;;;;;;0.47;0.47;;;;;;;22.41;50.01;101036.69;5241982;28;20032;-81
2023/07/11 02:36:17;;;;;;;0.30;0.30;;;;;;;22.43;50.48;101034.78;5237636;28;20565;-81
2023/07/11 02:39:08;;;;;;;0.47;0.47;;;;;;;22.39;49.90;101027.88;5265653;28;20036;-81
2023/07/11 02:41:59;;;;;;;1.67;0.40;;;;;;;22.37;49.85;101024.47;5247870;28;20117;-81
2023/07/11 02:44:50;;;;;;;0.20;0.20;;;;;;;22.33;50.09;101024.72;5245232;28;20024;-81
2023/07/11 02:47:41;;;;;;;0.40;0.40;;;;;;;22.32;50.44;101017.66;5234204;28;20035;-81
2023/07/11 02:50:31;;;;;;;0.52;0.30;;;;;;;22.28;50.47;101020.66;5265038;28;20036;-82
2023/07/11 02:53:22;;;;;;;0.50;0.50;;;;;;;22.28;50.53;101018.81;5265341;28;20107;-81
2023/07/11 02:56:15;;;;;;;0.50;0.50;;;;;;;22.27;50.12;101024.28;5232323;28;20041;-81
2023/07/11 02:59:05;;;;;;;0.20;0.20;;;;;;;22.23;50.51;101017.47;5247378;28;20047;-81
2023/07/11 03:01:58;;;;;;;0.20;0.20;;;;;;;22.22;50.51;101011.25;5243694;28;20031;-81
2023/07/11 03:04:49;;;;;;;0.43;0.43;;;;;;;22.22;50.52;101016.59;5260788;28;20108;-81
2023/07/11 03:07:40;;;;;;;0.85;0.38;;;;;;;22.19;51.15;101007.94;5262432;28;20121;-81
2023/07/11 03:10:32;;;;;;;1.08;0.60;;;;;;;22.15;50.77;101002.81;5244530;28;20658;-81
2023/07/11 03:13:24;;;;;;;0.40;0.40;;;;;;;22.13;50.63;101004.75;5246007;28;20062;-81
2023/07/11 03:16:14;;;;;;;0.40;0.40;;;;;;;22.10;50.86;101001.47;5228613;28;20040;-81
2023/07/11 03:19:05;;;;;;;1.60;1.30;;;;;;;22.09;50.80;101000.59;5260969;28;20069;-81
2023/07/11 03:21:56;;;;;;;0.40;0.40;;;;;;;22.01;51.03;100998.47;5246164;28;20028;-81
2023/07/11 03:24:47;;;;;;;0.63;0.63;;;;;;;22.01;50.88;101001.16;5238421;28;20478;-81
2023/07/11 03:27:38;;;;;;;0.35;0.35;;;;;;;21.99;51.19;100989.72;5261744;28;20278;-81
2023/07/11 03:30:31;;;;;;;0.32;0.32;;;;;;;21.99;51.28;100995.06;5241802;28;20216;-81
2023/07/11 03:33:21;;;;;;;0.60;0.60;;;;;;;21.94;51.53;100997.19;5245602;28;20032;-81
2023/07/11 03:36:12;;;;;;;0.40;0.40;;;;;;;21.93;51.59;100995.50;5246753;28;20567;-81
2023/07/11 03:39:03;;;;;;;0.45;0.45;;;;;;;21.92;51.79;100993.78;5231361;28;20056;-81
2023/07/11 03:41:54;;;;;;;0.30;0.30;;;;;;;21.88;51.71;100991.44;5245071;28;20059;-81
2023/07/11 03:44:45;;;;;;;0.20;0.20;;;;;;;21.87;51.54;100987.91;5243879;28;20127;-81
2023/07/11 03:47:36;;;;;;;0.45;0.45;;;;;;;21.87;52.12;100989.72;5229077;28;20066;-81
2023/07/11 03:50:27;;;;;;;0.40;0.40;;;;;;;21.83;52.00;100984.59;5241223;28;20085;-81
2023/07/11 03:53:17;;;;;;;0.73;0.73;;;;;;;21.78;51.87;100980.53;5240153;28;20510;-81
2023/07/11 03:56:08;;;;;;;1.00;0.40;;;;;;;21.72;51.82;100981.84;5232415;28;20398;-81
2023/07/11 03:58:59;;;;;;;1.40;1.30;;;;;;;21.72;51.77;100986.31;5249421;28;20055;-81
2023/07/11 04:01:50;;;;;;;0.57;0.47;;;;;;;21.67;52.13;100979.50;5240413;28;20494;-81
2023/07/11 04:04:42;;;;;;;1.20;0.90;;;;;;;21.67;52.07;100979.50;5244364;28;20471;-82
2023/07/11 04:07:32;;;;;;;2.30;1.20;;;;;;;21.68;52.38;100983.00;5262142;28;20228;-82
2023/07/11 04:10:23;;;;;;;0.68;0.38;;;;;;;21.66;52.35;100977.78;5262649;28;20491;-82
2023/07/11 04:13:14;;;;;;;0.28;0.28;;;;;;;21.65;52.09;100980.56;5231023;28;20032;-82
2023/07/11 04:16:05;;;;;;;0.75;0.55;;;;;;;21.59;52.18;100976.50;5230786;28;20581;-81
2023/07/11 04:18:56;;;;;;;0.20;0.20;;;;;;;21.55;52.21;100969.63;5246845;28;20036;-82
2023/07/11 04:21:46;;;;;;;0.32;0.32;;;;;;;21.54;52.24;100970.56;5253345;28;20565;-82
2023/07/11 04:24:37;;;;;;;0.25;0.25;;;;;;;21.52;51.90;100969.84;5251573;28;20047;-82
2023/07/11 04:27:28;;;;;;;0.43;0.43;;;;;;;21.52;52.29;100967.19;5268137;28;20262;-82
2023/07/11 04:30:19;;;;;;;0.60;0.60;;;;;;;21.49;51.81;100960.22;5227279;28;20596;-81
2023/07/11 04:33:09;;;;;;;0.40;0.40;;;;;;;21.45;52.29;100960.53;5248686;28;20422;-81
2023/07/11 04:36:10;;;;;;;0.30;0.30;;;;;;;21.47;51.81;100955.94;5245797;28;20773;-81
2023/07/11 04:39:01;;;;;;;3.83;0.90;;;;;;;21.45;51.94;100957.88;5243543;28;20043;-80
2023/07/11 04:41:51;;;;;;;0.22;0.22;;;;;;;21.44;52.19;100951.69;5260825;28;20306;-80
2023/07/11 04:44:42;;;;;;;0.70;0.70;;;;;;;21.45;52.06;100956.06;5228271;28;20040;-81
2023/07/11 04:47:33;;;;;;;0.32;0.32;;;;;;;21.45;51.89;100952.53;5229660;28;20382;-81
2023/07/11 04:50:24;;;;;;;0.32;0.32;;;;;;;21.44;52.15;100946.34;5228667;28;20142;-81
2023/07/11 04:53:15;;;;;;;1.05;0.57;;;;;;;21.46;51.80;100954.25;5241728;28;20091;-81
2023/07/11 04:56:08;;;;;;;0.30;0.30;;;;;;;21.44;52.15;100951.69;5243192;28;20024;-81
2023/07/11 04:59:00;;;;;;;0.32;0.32;;;;;;;21.47;52.15;100950.63;5247179;28;20409;-80
2023/07/11 05:01:51;;;;;;;0.40;0.40;;;;;;;21.43;52.29;100949.13;5251884;28;20028;-81
2023/07/11 05:04:42;;;;;;;0.40;0.40;;;;;;;21.46;52.14;100943.56;5232156;28;20039;-81
2023/07/11 05:07:33;;;;;;;0.30;0.30;;;;;;;21.45;52.20;100941.84;5248191;28;20092;-81
2023/07/11 05:10:23;;;;;;;0.50;0.45;;;;;;;21.49;52.51;100943.34;5234637;28;20054;-81
2023/07/11 05:13:14;;;;;;;0.40;0.40;;;;;;;21.48;52.55;100938.97;5247377;28;20040;-81
2023/07/11 05:16:11;;;;;;;0.52;0.52;;;;;;;21.52;52.79;100943.16;5232432;28;20040;-81
2023/07/11 05:19:02;;;;;;;0.30;0.30;;;;;;;21.49;52.88;100938.03;5246424;28;20036;-81
2023/07/11 05:21:53;;;;;;;0.75;0.65;;;;;;;21.49;52.66;100938.03;5273301;28;20032;-81
2023/07/11 05:24:44;;;;;;;0.30;0.30;;;;;;;21.47;52.65;100930.13;5259355;28;20053;-81
2023/07/11 05:27:34;;;;;;;4.85;0.68;;;;;;;21.51;52.95;100930.78;5258786;28;20012;-81
2023/07/11 05:30:25;;;;;;;0.75;0.75;;;;;;;21.54;52.67;100931.41;5257118;28;20049;-81
2023/07/11 05:33:16;;;;;;;0.40;0.40;;;;;;;21.54;53.67;100927.88;5237483;28;20031;-81
2023/07/11 05:36:15;;;;;;;0.40;0.40;;;;;;;21.58;52.82;100926.72;5238757;28;20056;-81
2023/07/11 05:39:10;;;;;;;0.40;0.40;;;;;;;21.59;53.01;100920.44;5266170;28;20421;-81
2023/07/11 05:42:02;;;;;;;0.60;0.60;;;;;;;21.59;53.26;100917.75;5251230;28;20073;-81
2023/07/11 05:44:54;;;;;;;1.23;1.15;;;;;;;21.61;53.18;100913.16;5250235;28;20462;-81
2023/07/11 05:47:45;;;;;;;0.75;0.75;;;;;;;21.62;53.38;100912.19;5258571;28;20024;-81
2023/07/11 05:50:36;;;;;;;0.47;0.47;;;;;;;21.67;53.97;100909.19;5240931;28;20047;-82
2023/07/11 05:53:28;;;;;;;0.73;0.73;;;;;;;21.67;53.42;100910.06;5231720;28;20020;-81
2023/07/11 05:56:20;;;;;;;0.63;0.63;;;;;;;21.64;53.84;100910.28;5268647;28;20036;-81
2023/07/11 05:59:10;;;;;;;0.50;0.50;;;;;;;21.67;53.74;100902.06;5251027;28;20292;-81
2023/07/11 06:02:01;;;;;;;5.57;1.02;;;;;;;21.69;54.00;100896.59;5253645;28;20032;-81
2023/07/11 06:04:52;;;;;;;0.43;0.43;;;;;;;21.72;53.33;100893.72;5262152;28;20123;-81
2023/07/11 06:07:43;;;;;;;0.45;0.45;;;;;;;21.74;54.19;100888.25;5253592;28;20385;-81
2023/07/11 06:10:35;;;;;;;0.30;0.30;;;;;;;21.79;53.84;100883.44;5256151;28;20525;-81
2023/07/11 06:13:28;;;;;;;0.55;0.55;;;;;;;21.79;54.32;100883.44;5248686;28;20032;-81
2023/07/11 06:16:19;;;;;;;0.75;0.75;;;;;;;21.82;53.69;100876.03;5249889;28;20096;-81
2023/07/11 06:19:10;;;;;;;0.98;0.85;;;;;;;21.83;55.86;100879.59;5245903;28;20084;-81
2023/07/11 06:22:01;;;;;;;0.28;0.28;;;;;;;21.82;54.81;100880.53;5243318;28;20093;-81
2023/07/11 06:24:52;;;;;;;0.75;0.75;;;;;;;21.87;54.34;100873.03;5244774;28;20040;-81
2023/07/11 06:27:43;;;;;;;0.73;0.73;;;;;;;21.94;54.18;100873.47;5247024;28;20030;-81
2023/07/11 06:30:33;;;;;;;0.82;0.82;;;;;;;21.84;55.68;100873.28;5247415;28;20583;-82
2023/07/11 06:33:25;;;;;;;1.05;1.02;;;;;;;21.91;54.62;100869.19;5261874;28;20032;-81
2023/07/11 06:36:16;;;;;;;0.45;0.45;;;;;;;21.92;56.79;100867.38;5231777;28;20099;-81
2023/07/11 06:39:07;;;;;;;0.40;0.40;;;;;;;21.92;56.04;100872.72;5249606;28;20054;-81
2023/07/11 06:41:58;;;;;;;0.28;0.28;;;;;;;21.98;55.82;100875.81;5245631;28;20055;-81
2023/07/11 06:44:49;;;;;;;0.30;0.30;;;;;;;22.04;55.05;100863.81;5246242;28;20524;-81
2023/07/11 06:47:40;;;;;;;0.22;0.22;;;;;;;21.96;57.04;100867.03;5248492;28;20036;-81
2023/07/11 06:50:31;;;;;;;0.95;0.88;;;;;;;22.01;56.74;100853.34;5247416;28;20035;-81
2023/07/11 06:53:23;;;;;;;0.93;0.60;;;;;;;22.04;56.60;100857.59;5245918;28;20034;-81
2023/07/11 06:56:14;;;;;;;1.10;0.85;;;;;;;22.01;57.08;100851.53;5231743;28;20646;-81
2023/07/11 06:59:05;;;;;;;0.40;0.40;;;;;;;22.07;56.73;100844.88;5232967;28;20039;-81
2023/07/11 07:01:56;;;;;;;0.45;0.45;;;;;;;22.11;56.11;100848.16;5241608;28;20044;-81
2023/07/11 07:04:46;;;;;;;0.20;0.20;;;;;;;22.18;56.14;100844.09;5242072;28;20060;-80
2023/07/11 07:07:37;;;;;;;1.55;1.08;;;;;;;22.22;56.39;100848.22;5261316;28;20099;-81
2023/07/11 07:10:28;;;;;;;0.30;0.30;;;;;;;22.26;55.99;100847.06;5260993;28;20043;-81
2023/07/11 07:13:22;;;;;;;0.45;0.45;;;;;;;22.33;56.02;100850.97;5231952;28;20119;-81
2023/07/11 07:16:13;;;;;;;0.40;0.40;;;;;;;22.32;55.79;100846.59;5241319;28;20047;-81
2023/07/11 07:19:05;;;;;;;1.13;1.10;;;;;;;22.30;56.62;100842.31;5240498;28;20055;-81
2023/07/11 07:21:56;;;;;;;0.65;0.60;;;;;;;22.36;56.55;100843.66;5259339;28;20028;-81
2023/07/11 07:24:47;;;;;;;0.82;0.60;;;;;;;22.38;57.41;100847.09;5242200;28;20043;-81
2023/07/11 07:27:38;;;;;;;0.55;0.55;;;;;;;22.38;56.99;100841.75;5241961;28;20077;-82
2023/07/11 07:30:29;;;;;;;1.50;0.55;;;;;;;22.45;57.32;100840.34;5228382;28;20038;-81
2023/07/11 07:33:23;;;;;;;0.68;0.68;;;;;;;22.44;57.69;100838.63;5244417;28;20631;-81
2023/07/11 07:36:14;;;;;;;2.90;0.75;;;;;;;22.51;57.12;100833.69;5239011;28;20048;-81
2023/07/11 07:39:05;;;;;;;0.28;0.28;;;;;;;22.55;57.15;100836.00;5226235;28;20036;-81
2023/07/11 07:41:56;;;;;;;0.55;0.52;;;;;;;22.60;57.95;100833.81;5227186;28;20569;-82
2023/07/11 07:44:47;;;;;;;0.40;0.40;;;;;;;22.66;57.60;100826.31;5241615;28;20040;-81
2023/07/11 07:47:38;;;;;;;0.93;0.82;;;;;;;22.72;57.30;100823.16;5248093;28;20165;-81
2023/07/11 07:50:28;;;;;;;0.60;0.52;;;;;;;22.78;58.02;100820.00;5230160;28;20337;-81
2023/07/11 07:53:20;;;;;;;1.00;0.80;;;;;;;22.88;58.12;100820.16;5262011;28;20051;-81
2023/07/11 07:56:20;;;;;;;0.20;0.20;;;;;;;22.89;58.69;100812.00;5246607;28;20039;-81
2023/07/11 07:59:11;;;;;;;0.20;0.20;;;;;;;22.95;58.33;100813.38;5230470;28;20041;-81
2023/07/11 08:02:02;;;;;;;0.20;0.20;;;;;;;23.04;58.42;100809.09;5228675;28;20473;-81
2023/07/11 08:04:53;;;;;;;0.57;0.40;;;;;;;23.08;58.37;100805.22;5244838;28;20043;-81
2023/07/11 08:07:44;;;;;;;0.60;0.60;;;;;;;23.11;57.65;100811.19;5244622;28;20513;-81
2023/07/11 08:10:35;;;;;;;0.50;0.50;;;;;;;23.16;57.00;100810.81;5226657;28;20425;-81
2023/07/11 08:13:25;;;;;;;0.65;0.55;;;;;;;23.26;56.98;100802.94;5260041;28;20110;-81
2023/07/11 08:16:18;;;;;;;0.40;0.40;;;;;;;23.27;56.53;100804.66;5247252;28;20038;-84
2023/07/11 08:19:09;;;;;;;0.50;0.50;;;;;;;23.33;56.24;100803.31;5266266;28;20430;-82
2023/07/11 08:22:00;;;;;;;1.25;0.82;;;;;;;23.44;56.17;100797.94;5247822;28;20024;-82
2023/07/11 08:24:50;;;;;;;0.32;0.32;;;;;;;23.46;56.66;100795.97;5230647;28;20044;-82
2023/07/11 08:27:41;;;;;;;0.40;0.32;;;;;;;23.51;56.57;100801.81;5264749;28;20051;-82
2023/07/11 08:30:37;;;;;;;0.30;0.30;;;;;;;23.53;56.00;100789.16;5231678;28;20048;-81
2023/07/11 08:33:28;;;;;;;10.23;1.70;;;;;;;23.63;56.09;100797.31;5263181;28;20181;-82
2023/07/11 08:36:18;;;;;;;0.65;0.65;;;;;;;23.70;55.58;100794.97;5232200;28;20056;-81
2023/07/11 08:39:09;;;;;;;0.65;0.65;;;;;;;23.78;55.69;100787.16;5245257;28;20082;-82
2023/07/11 08:42:06;;;;;;;0.60;0.60;;;;;;;23.79;54.66;100783.50;5241684;28;20028;-82
2023/07/11 08:45:15;;;;;;;1.20;1.00;;;;;;;23.88;52.81;100781.91;5234440;28;20040;-83
2023/07/11 08:48:17;;;;;;;0.28;0.28;;;;;;;23.87;51.18;100775.69;5254435;28;20021;-82
2023/07/11 08:51:29;;;;;;;5.50;0.57;;;;;;;23.87;51.35;100781.03;5264822;28;20056;-82
2023/07/11 08:54:27;;;;;;;0.22;0.22;;;;;;;23.89;51.12;100781.78;5263152;28;20454;-82
2023/07/11 08:57:20;;;;;;;0.50;0.50;;;;;;;23.93;51.21;100782.38;5269526;28;20036;-81
2023/07/11 09:00:15;;;;;;;0.30;0.30;;;;;;;23.99;50.29;100773.00;5252414;28;20058;-83
2023/07/11 09:03:16;;;;;;;0.30;0.30;;;;;;;24.05;50.59;100772.47;5249012;28;20548;-82
2023/07/11 09:06:12;;;;;;;0.77;0.77;;;;;;;24.06;51.32;100768.81;5230967;28;20126;-82
2023/07/11 09:09:04;;;;;;;0.63;0.63;;;;;;;24.12;51.53;100768.31;5265517;28;20048;-82
2023/07/11 09:12:13;;;;;;;0.88;0.43;;;;;;;24.16;50.94;100763.53;5231963;28;20020;-82
2023/07/11 09:15:09;;;;;;;1.00;0.73;;;;;;;24.21;51.05;100747.94;5261981;28;20042;-82
2023/07/11 09:17:59;;;;;;;0.32;0.32;;;;;;;24.33;50.52;100748.72;5250258;28;20802;-81
2023/07/11 09:21:02;;;;;;;1.10;1.05;;;;;;;24.42;49.97;100734.50;5248182;28;20040;-82
2023/07/11 09:24:19;;;;;;;0.50;0.50;;;;;;;24.47;49.53;100737.66;5244223;28;20016;-81
2023/07/11 09:27:13;;;;;;;1.63;0.60;;;;;;;24.52;48.59;100735.41;5262446;28;20020;-81
2023/07/11 09:30:18;;;;;;;0.30;0.30;;;;;;;24.67;48.78;100724.38;5249321;28;20245;-81
2023/07/11 09:33:15;;;;;;;0.17;0.17;;;;;;;24.74;48.69;100722.00;5228009;28;20043;-82
2023/07/11 09:36:37;;;;;;;0.20;0.20;;;;;;;24.79;46.45;100722.47;5246241;28;20088;-83
2023/07/11 09:39:48;;;;;;;1.15;0.75;;;;;;;24.86;46.35;100712.91;5266308;28;20040;-83
2023/07/11 09:42:54;;;;;;;1.77;0.40;;;;;;;24.96;47.89;100713.75;5266721;28;20062;-82
2023/07/11 09:45:46;;;;;;;0.65;0.65;;;;;;;25.09;45.62;100713.53;5268049;28;20028;-82
2023/07/11 09:48:37;;;;;;;0.20;0.20;;;;;;;25.16;45.92;100710.31;5250731;28;20028;-82
2023/07/11 09:51:50;;;;;;;0.75;0.68;;;;;;;25.24;45.08;100710.47;5252698;28;20432;-82
2023/07/11 09:54:46;;;;;;;0.30;0.30;;;;;;;25.23;45.22;100708.78;5250828;28;20043;-83
2023/07/11 09:57:44;;;;;;;0.30;0.30;;;;;;;25.32;45.01;100705.28;5250882;28;20089;-83
2023/07/11 10:00:47;;;;;;;6.60;1.10;;;;;;;25.31;45.92;100695.50;5248608;28;20036;-83
2023/07/11 10:03:37;;;;;;;1.87;1.43;;;;;;;25.52;45.18;100697.25;5250903;28;20028;-83
2023/07/11 10:06:32;;;;;;;0.52;0.52;;;;;;;25.48;45.99;100693.16;5255598;28;20020;-83
2023/07/11 10:09:26;;;;;;;0.30;0.30;;;;;;;25.61;45.16;100701.78;5233287;28;20490;-82
2023/07/11 10:12:21;;;;;;;0.30;0.30;;;;;;;25.65;43.97;100692.47;5266554;28;20076;-81
2023/07/11 10:15:16;;;;;;;0.20;0.20;;;;;;;25.71;43.65;100691.91;5249841;28;20042;-81
2023/07/11 10:18:35;;;;;;;0.52;0.52;;;;;;;25.83;42.87;100681.84;5249602;28;20620;-82
2023/07/11 10:21:31;;;;;;;0.47;0.47;;;;;;;25.87;43.74;100685.09;5264898;28;20040;-82
2023/07/11 10:24:24;;;;;;;0.75;0.75;;;;;;;26.05;43.73;100685.22;5231166;28;20418;-82
2023/07/11 10:27:26;;;;;;;0.50;0.50;;;;;;;26.02;43.35;100675.59;5233908;28;20108;-81
2023/07/11 10:30:25;;;;;;;0.30;0.30;;;;;;;26.24;44.02;100676.28;5238929;28;20221;-81
2023/07/11 10:33:36;;;;;;;0.30;0.30;;;;;;;26.32;42.66;100673.72;5247059;28;20074;-82
2023/07/11 10:36:38;;;;;;;0.85;0.85;;;;;;;26.38;41.92;100673.16;5267795;28;20036;-82
2023/07/11 10:39:42;;;;;;;0.35;0.35;;;;;;;26.47;42.06;100676.81;5251285;28;20142;-82
2023/07/11 10:43:05;;;;;;;0.55;0.55;;;;;;;26.66;42.60;100666.97;5247951;28;20087;-81
2023/07/11 10:46:24;;;;;;;0.68;0.60;;;;;;;26.70;43.43;100660.28;5256117;28;20032;-83
2023/07/11 10:49:20;;;;;;;0.40;0.40;;;;;;;26.85;42.46;100655.28;5229195;28;20387;-82
2023/07/11 10:52:19;;;;;;;0.20;0.20;;;;;;;27.00;41.81;100656.47;5246109;28;20027;-83
2023/07/11 10:55:20;;;;;;;0.20;0.20;;;;;;;27.12;42.69;100654.41;5249892;28;20062;-82
2023/07/11 10:58:11;;;;;;;0.22;0.22;;;;;;;27.06;42.26;100657.72;5238224;28;20028;-82
2023/07/11 11:01:14;;;;;;;0.73;0.60;;;;;;;27.21;40.84;100644.59;5235250;28;20578;-83
2023/07/11 11:04:23;;;;;;;0.20;0.20;;;;;;;27.43;40.54;100647.88;5231329;28;20032;-83
2023/07/11 11:07:42;;;;;;;0.82;0.82;;;;;;;27.47;41.25;100641.19;5244763;28;20051;-82
2023/07/11 11:10:42;;;;;;;0.10;0.10;;;;;;;27.52;40.02;100630.78;5245774;28;20028;-85
2023/07/11 11:13:47;;;;;;;0.77;0.77;;;;;;;27.54;40.31;100631.47;5237674;28;20039;-82
2023/07/11 11:16:54;;;;;;;0.20;0.20;;;;;;;27.65;40.05;100612.34;5237311;28;20091;-81
2023/07/11 11:19:44;;;;;;;0.30;0.30;;;;;;;27.64;40.30;100615.22;5266318;28;20100;-81
2023/07/11 11:22:58;;;;;;;0.30;0.30;;;;;;;27.79;40.04;100602.88;5235089;28;20641;-82
2023/07/11 11:26:08;;;;;;;0.30;0.30;;;;;;;27.98;39.00;100605.50;5245451;28;20040;-81
2023/07/11 11:29:27;;;;;;;0.55;0.38;;;;;;;27.88;39.06;100603.78;5248034;28;20119;-81
2023/07/11 11:32:36;;;;;;;1.08;0.98;;;;;;;28.10;39.37;100593.50;5261534;28;20023;-84
2023/07/11 11:36:02;;;;;;;1.35;0.43;;;;;;;28.25;38.91;100586.50;5230818;28;20065;-82
2023/07/11 11:39:10;;;;;;;0.30;0.30;;;;;;;28.15;39.20;100585.75;5245820;28;20391;-81
2023/07/11 11:42:06;;;;;;;0.20;0.20;;;;;;;28.23;38.80;100577.72;5246740;28;20436;-83
2023/07/11 11:45:01;;;;;;;0.73;0.73;;;;;;;28.46;38.44;100573.59;5244793;28;20537;-84
2023/07/11 11:47:54;;;;;;;0.65;0.65;;;;;;;28.56;38.89;100577.03;5262261;28;20044;-81
2023/07/11 11:50:47;;;;;;;0.47;0.47;;;;;;;28.71;39.21;100566.47;5245817;28;20108;-82
2023/07/11 11:53:46;;;;;;;0.20;0.20;;;;;;;28.78;38.06;100561.25;5246316;28;20028;-82
2023/07/11 11:56:44;;;;;;;0.10;0.10;;;;;;;28.80;39.41;100557.38;5248001;28;20020;-82
2023/07/11 11:59:34;;;;;;;0.70;0.70;;;;;;;28.87;39.11;100547.63;5254843;28;20044;-82
2023/07/11 12:02:34;;;;;;;0.93;0.85;;;;;;;29.05;38.62;100562.81;5264603;28;20028;-82
2023/07/11 12:05:25;;;;;;;0.30;0.30;;;;;;;28.94;39.26;100546.94;5264065;28;20033;-82
2023/07/11 12:08:29;;;;;;;1.50;0.93;;;;;;;29.23;37.61;100545.59;5267863;28;20059;-82
2023/07/11 12:11:30;;;;;;;0.22;0.22;;;;;;;29.25;37.57;100538.19;5236053;28;20119;-82
2023/07/11 12:14:25;;;;;;;0.40;0.40;;;;;;;29.49;36.95;100540.91;5242896;28;20045;-84
2023/07/11 12:17:31;;;;;;;0.47;0.47;;;;;;;29.67;37.49;100531.78;5262784;28;20042;-83
2023/07/11 12:20:27;;;;;;;0.40;0.40;;;;;;;29.60;37.59;100530.78;5265971;28;20039;-83
2023/07/11 12:23:18;;;;;;;0.35;0.35;;;;;;;29.98;37.15;100523.78;5246316;28;20544;-82
2023/07/11 12:26:16;;;;;;;0.75;0.75;;;;;;;29.93;36.40;100520.75;5265720;28;20040;-84
2023/07/11 12:29:34;;;;;;;0.20;0.20;;;;;;;30.06;36.39;100525.59;5263556;28;20040;-84
2023/07/11 12:32:31;;;;;;;0.75;0.57;;;;;;;30.05;36.22;100515.81;5248479;28;20046;-84
2023/07/11 12:35:34;;;;;;;0.30;0.30;;;;;;;30.25;35.98;100518.94;5230150;28;20932;-82
2023/07/11 12:38:38;;;;;;;0.17;0.17;;;;;;;30.28;35.47;100513.19;5238535;28;20025;-82
2023/07/11 12:41:56;;;;;;;3.00;0.57;;;;;;;30.49;35.60;100509.03;5263618;28;20058;-82
2023/07/11 12:44:47;;;;;;;1.52;0.93;;;;;;;30.46;36.27;100503.97;5244646;28;20059;-82
2023/07/11 12:47:41;;;;;;;0.52;0.52;;;;;;;30.64;36.80;100495.59;5247155;28;20028;-82
2023/07/11 12:50:46;;;;;;;0.40;0.40;;;;;;;30.71;34.93;100491.13;5263813;28;20028;-83
2023/07/11 12:53:37;;;;;;;0.30;0.30;;;;;;;30.81;35.13;100495.47;5261147;28;20032;-81
2023/07/11 12:56:29;;;;;;;0.20;0.20;;;;;;;31.01;35.53;100493.13;5256092;28;20055;-82
2023/07/11 12:59:24;;;;;;;0.32;0.32;;;;;;;31.04;33.86;100488.19;5265298;28;20040;-83
2023/07/11 13:02:19;;;;;;;0.15;0.15;;;;;;;31.07;34.90;100474.28;5245606;28;20047;-82
2023/07/11 13:05:11;;;;;;;0.20;0.20;;;;;;;31.17;33.67;100468.63;5242938;28;20035;-83
2023/07/11 13:08:14;;;;;;;0.20;0.20;;;;;;;31.46;34.19;100474.28;5247974;28;20040;-82
2023/07/11 13:11:05;;;;;;;1.00;0.90;;;;;;;31.21;34.15;100461.81;5265525;28;20058;-82
2023/07/11 13:13:57;;;;;;;0.52;0.30;;;;;;;31.33;34.23;100464.94;5249905;28;20123;-82
2023/07/11 13:16:49;;;;;;;0.20;0.20;;;;;;;31.70;32.92;100456.94;5249854;28;20059;-81
2023/07/11 13:19:40;;;;;;;0.40;0.40;;;;;;;31.57;34.04;100457.56;5264638;28;20264;-82
2023/07/11 13:22:32;;;;;;;0.10;0.10;;;;;;;31.75;34.26;100453.66;5249201;28;20429;-83
2023/07/11 13:25:34;;;;;;;1.00;0.65;;;;;;;31.63;35.31;100442.44;5264405;28;20032;-82
2023/07/11 13:28:36;;;;;;;1.53;0.63;;;;;;;31.89;32.97;100441.97;5250364;28;20490;-82
2023/07/11 13:31:31;;;;;;;0.28;0.28;;;;;;;31.84;34.28;100436.28;5260183;28;20128;-84
2023/07/11 13:34:27;;;;;;;0.57;0.57;;;;;;;32.04;34.33;100436.53;5261446;28;20058;-82